Time;durP1;ratioP1;P1;durP2;ratioP2;P2;SDS_P1;SDS_P2;PMS_P1;PMS_P2;Temp;Humidity;BMP_temperature;BMP_pressure;BME280_temperature;BME280_humidity;BME280_pressure;Samples;Min_cycle;Max_cycle;Signal;HPM_P1;HPM_P2
2021/08/19 00:00:18;;;;;;;2.92;2.60;;;20.40;69.20;;;;;;5069713;28;20636;-79
2021/08/19 00:02:44;;;;;;;2.63;2.40;;;20.40;69.30;;;;;;5035460;28;20162;-80
2021/08/19 00:05:11;;;;;;;3.08;2.28;;;20.50;69.30;;;;;;5034341;28;20166;-79
2021/08/19 00:07:37;;;;;;;3.42;2.60;;;20.50;69.30;;;;;;5034445;28;20159;-79
2021/08/19 00:10:04;;;;;;;2.80;2.50;;;20.50;69.30;;;;;;5034175;28;20234;-81
2021/08/19 00:12:30;;;;;;;3.40;2.50;;;20.50;69.30;;;;;;5034053;28;20241;-78
2021/08/19 00:14:56;;;;;;;2.65;2.45;;;20.50;69.30;;;;;;5034296;28;20594;-81
2021/08/19 00:17:22;;;;;;;2.47;2.28;;;20.50;69.30;;;;;;5035285;28;20147;-80
2021/08/19 00:19:48;;;;;;;2.83;2.45;;;20.40;69.30;;;;;;5033960;28;20177;-80
2021/08/19 00:22:14;;;;;;;2.70;2.35;;;20.40;69.30;;;;;;5033946;28;20151;-81
2021/08/19 00:24:40;;;;;;;3.03;2.60;;;20.50;69.40;;;;;;5035792;28;20155;-78
2021/08/19 00:27:06;;;;;;;3.10;2.53;;;20.50;69.40;;;;;;5033708;28;20158;-79
2021/08/19 00:29:32;;;;;;;2.83;2.30;;;20.50;69.40;;;;;;5017328;28;20166;-80
2021/08/19 00:31:58;;;;;;;2.78;2.25;;;20.50;69.40;;;;;;5017416;28;20202;-79
2021/08/19 00:34:27;;;;;;;3.17;2.50;;;20.50;69.40;;;;;;5033938;28;20225;-79
2021/08/19 00:36:54;;;;;;;3.00;2.08;;;20.40;69.40;;;;;;5000236;28;20217;-79
2021/08/19 00:39:20;;;;;;;2.90;2.50;;;20.40;69.40;;;;;;5033772;28;20159;-81
2021/08/19 00:41:46;;;;;;;2.70;2.50;;;20.50;69.40;;;;;;5033529;28;20498;-79
2021/08/19 00:44:16;;;;;;;2.75;2.47;;;20.50;69.40;;;;;;5033648;28;20163;-79
2021/08/19 00:46:43;;;;;;;2.72;2.40;;;20.40;69.40;;;;;;5068874;28;20187;-80
2021/08/19 00:49:09;;;;;;;2.50;2.20;;;20.40;69.40;;;;;;5016837;28;20210;-79
2021/08/19 00:51:40;;;;;;;2.78;2.55;;;20.50;69.40;;;;;;5017256;28;20636;-81
2021/08/19 00:54:08;;;;;;;3.13;2.40;;;20.50;69.40;;;;;;5033805;28;20194;-80
2021/08/19 00:56:34;;;;;;;2.90;2.60;;;20.50;69.40;;;;;;5016941;28;20181;-81
2021/08/19 00:59:02;;;;;;;4.03;2.58;;;20.50;69.40;;;;;;5033375;28;20506;-79
2021/08/19 01:01:28;;;;;;;3.03;2.40;;;20.40;69.30;;;;;;5017202;28;20163;-80
2021/08/19 01:03:58;;;;;;;2.78;2.42;;;20.50;69.40;;;;;;5016773;28;20178;-79
2021/08/19 01:06:24;;;;;;;2.88;2.55;;;20.50;69.40;;;;;;5069037;28;20552;-78
2021/08/19 01:08:54;;;;;;;2.50;2.30;;;20.50;69.40;;;;;;5032992;28;20162;-80
2021/08/19 01:11:20;;;;;;;2.42;2.20;;;20.50;69.40;;;;;;5000085;28;20186;-78
2021/08/19 01:13:47;;;;;;;3.05;2.13;;;20.50;69.40;;;;;;5033311;28;20711;-81
2021/08/19 01:16:14;;;;;;;2.63;2.42;;;20.50;69.40;;;;;;5034428;28;20166;-80
2021/08/19 01:18:42;;;;;;;2.63;2.42;;;20.50;69.40;;;;;;5016425;28;20614;-82
2021/08/19 01:21:13;;;;;;;2.70;2.42;;;20.50;69.40;;;;;;5016950;28;20175;-81
2021/08/19 01:23:39;;;;;;;2.60;2.40;;;20.50;70.30;;;;;;5067924;28;20179;-79
2021/08/19 01:26:12;;;;;;;2.75;2.33;;;20.40;69.40;;;;;;5034120;28;20155;-79
2021/08/19 01:28:42;;;;;;;2.95;2.55;;;20.50;69.40;;;;;;5067901;28;20218;-82
2021/08/19 01:31:11;;;;;;;2.65;2.38;;;20.40;69.40;;;;;;4983397;28;20600;-80
2021/08/19 01:33:37;;;;;;;2.70;2.50;;;20.40;69.40;;;;;;5032279;28;20216;-82
2021/08/19 01:36:03;;;;;;;2.75;2.30;;;20.50;69.40;;;;;;5032658;28;20572;-81
2021/08/19 01:38:30;;;;;;;3.10;2.55;;;20.40;69.30;;;;;;5033162;28;20167;-81
2021/08/19 01:40:56;;;;;;;2.55;2.35;;;20.50;69.40;;;;;;5032950;28;20622;-79
2021/08/19 01:43:24;;;;;;;4.63;2.50;;;20.50;69.30;;;;;;5016007;28;20573;-79
2021/08/19 01:45:53;;;;;;;2.80;2.35;;;20.50;69.40;;;;;;5032690;28;20261;-79
2021/08/19 01:48:22;;;;;;;2.90;2.40;;;20.50;69.40;;;;;;5032435;28;20170;-79
2021/08/19 01:50:48;;;;;;;2.85;2.47;;;20.50;69.40;;;;;;5067515;28;20190;-79
2021/08/19 01:53:14;;;;;;;2.60;2.40;;;20.50;69.40;;;;;;5035893;28;20198;-78
2021/08/19 01:55:40;;;;;;;2.53;2.20;;;20.40;69.40;;;;;;5039372;28;20184;-79
2021/08/19 01:58:13;;;;;;;2.97;2.40;;;20.50;69.40;;;;;;5036295;28;20170;-79
2021/08/19 02:00:43;;;;;;;2.60;2.40;;;20.50;69.40;;;;;;5004633;28;20185;-81
2021/08/19 02:03:13;;;;;;;2.75;2.38;;;20.50;69.60;;;;;;5070846;28;20604;-79
2021/08/19 02:05:48;;;;;;;2.55;2.30;;;20.50;69.40;;;;;;4988238;28;20187;-79
2021/08/19 02:08:14;;;;;;;2.30;2.10;;;20.50;69.40;;;;;;5004324;28;20208;-78
2021/08/19 02:10:40;;;;;;;2.78;2.42;;;20.50;69.50;;;;;;5039500;28;20148;-81
2021/08/19 02:13:06;;;;;;;3.00;2.70;;;20.50;69.50;;;;;;5034442;28;20328;-80
2021/08/19 02:15:32;;;;;;;2.90;2.60;;;20.40;69.40;;;;;;5036014;28;20219;-80
2021/08/19 02:17:57;;;;;;;2.75;2.45;;;20.50;69.60;;;;;;5053487;28;20166;-81
2021/08/19 02:20:24;;;;;;;2.80;2.50;;;20.50;69.60;;;;;;5035775;28;20162;-81
2021/08/19 02:22:57;;;;;;;2.60;2.25;;;20.40;69.50;;;;;;5019974;28;20261;-82
2021/08/19 02:25:23;;;;;;;2.50;2.30;;;20.50;69.50;;;;;;5003933;28;20210;-82
2021/08/19 02:27:49;;;;;;;2.60;2.35;;;20.40;69.40;;;;;;5053907;28;20159;-81
2021/08/19 02:30:15;;;;;;;2.58;2.33;;;20.40;69.40;;;;;;5053557;28;20155;-81
2021/08/19 02:32:41;;;;;;;2.80;2.50;;;20.40;69.40;;;;;;5053363;28;20154;-82
2021/08/19 02:35:07;;;;;;;2.25;2.05;;;20.50;69.60;;;;;;5035394;28;20257;-81
2021/08/19 02:37:38;;;;;;;3.30;2.75;;;20.50;69.50;;;;;;5035969;28;20478;-82
2021/08/19 02:40:05;;;;;;;3.15;2.60;;;20.50;69.60;;;;;;5070013;28;20186;-82
2021/08/19 02:42:30;;;;;;;2.65;2.45;;;20.40;69.60;;;;;;5019004;28;20174;-81
2021/08/19 02:45:01;;;;;;;2.70;2.50;;;20.50;69.60;;;;;;5035769;28;20546;-81
2021/08/19 02:47:31;;;;;;;2.97;2.50;;;20.40;69.60;;;;;;5070786;28;20272;-80
2021/08/19 02:49:57;;;;;;;2.70;2.30;;;20.40;69.60;;;;;;4985493;28;20178;-80
2021/08/19 02:52:24;;;;;;;2.28;2.08;;;20.40;69.60;;;;;;5034976;28;20604;-81
2021/08/19 02:54:50;;;;;;;3.15;2.53;;;20.40;69.60;;;;;;5034980;28;20186;-80
2021/08/19 02:57:20;;;;;;;2.50;2.30;;;20.40;69.70;;;;;;5035001;28;20643;-80
2021/08/19 02:59:46;;;;;;;2.78;2.30;;;20.40;69.60;;;;;;5069613;28;20217;-80
2021/08/19 03:02:12;;;;;;;3.05;2.45;;;20.40;69.60;;;;;;5034413;28;20524;-81
2021/08/19 03:04:38;;;;;;;2.53;2.33;;;20.40;69.60;;;;;;5034264;28;20240;-83
2021/08/19 03:07:07;;;;;;;2.97;2.40;;;20.50;69.70;;;;;;5034321;28;20577;-80
2021/08/19 03:09:37;;;;;;;2.83;2.50;;;20.50;70.50;;;;;;5052095;28;20189;-82
2021/08/19 03:12:07;;;;;;;2.60;2.30;;;20.40;69.60;;;;;;4984787;28;20217;-80
2021/08/19 03:14:34;;;;;;;2.47;2.28;;;20.50;69.70;;;;;;5068464;28;20243;-80
2021/08/19 03:17:00;;;;;;;2.58;2.22;;;20.40;69.70;;;;;;5010435;28;20178;-81
2021/08/19 03:19:29;;;;;;;2.80;2.40;;;20.50;69.70;;;;;;5010224;28;20619;-80
2021/08/19 03:21:55;;;;;;;2.95;2.45;;;20.50;69.60;;;;;;4993492;28;20183;-80
2021/08/19 03:24:21;;;;;;;2.97;2.45;;;20.40;69.70;;;;;;5010487;28;20565;-81
2021/08/19 03:26:51;;;;;;;2.55;2.35;;;20.40;69.70;;;;;;5011250;28;20156;-82
2021/08/19 03:29:17;;;;;;;2.95;2.50;;;20.40;69.70;;;;;;5061515;28;20186;-82
2021/08/19 03:31:43;;;;;;;2.30;2.08;;;20.50;69.70;;;;;;5010721;28;20164;-82
2021/08/19 03:34:09;;;;;;;2.88;2.30;;;20.40;69.70;;;;;;5011338;28;20262;-81
2021/08/19 03:36:35;;;;;;;2.65;2.40;;;20.40;69.70;;;;;;5010453;28;20166;-81
2021/08/19 03:39:03;;;;;;;2.42;2.22;;;20.50;69.70;;;;;;5010101;28;20679;-82
2021/08/19 03:41:29;;;;;;;2.47;2.28;;;20.40;69.70;;;;;;4993108;28;20163;-81
2021/08/19 03:43:55;;;;;;;2.78;2.42;;;20.50;69.70;;;;;;5009010;28;20159;-81
2021/08/19 03:46:22;;;;;;;2.67;2.47;;;20.40;69.80;;;;;;5009676;28;20162;-80
2021/08/19 03:48:48;;;;;;;3.55;2.70;;;20.40;69.80;;;;;;5008691;28;20156;-80
2021/08/19 03:51:14;;;;;;;2.60;2.40;;;20.40;69.80;;;;;;4992719;28;20288;-80
2021/08/19 03:53:40;;;;;;;2.80;2.50;;;20.40;69.80;;;;;;4991983;28;20206;-80
2021/08/19 03:56:06;;;;;;;2.40;2.13;;;20.40;69.70;;;;;;4992096;28;20202;-81
2021/08/19 03:58:32;;;;;;;2.50;2.30;;;20.40;69.80;;;;;;5008710;28;20159;-81
2021/08/19 04:01:00;;;;;;;3.05;2.60;;;20.40;69.80;;;;;;4991973;28;20172;-80
2021/08/19 04:03:26;;;;;;;2.60;2.40;;;20.40;69.80;;;;;;5009597;28;20251;-81
2021/08/19 04:05:52;;;;;;;2.30;2.10;;;20.40;69.80;;;;;;5009661;28;20250;-81
2021/08/19 04:08:18;;;;;;;2.72;2.40;;;20.40;69.80;;;;;;5009358;28;20678;-81
2021/08/19 04:10:43;;;;;;;2.58;2.38;;;20.50;69.80;;;;;;5009692;28;20514;-82
2021/08/19 04:13:09;;;;;;;2.50;2.30;;;20.40;69.80;;;;;;4970744;28;1164088;-81
2021/08/19 04:15:35;;;;;;;2.78;2.47;;;20.40;69.80;;;;;;5049833;28;20162;-81
2021/08/19 04:18:01;;;;;;;2.72;2.45;;;20.40;69.60;;;;;;5015486;28;20254;-81
2021/08/19 04:20:27;;;;;;;2.22;1.98;;;20.40;69.30;;;;;;5031809;28;20164;-82
2021/08/19 04:22:53;;;;;;;2.10;1.90;;;20.40;68.70;;;;;;5032026;28;20162;-81
2021/08/19 04:25:19;;;;;;;3.15;2.03;;;20.40;68.00;;;;;;5031829;28;20633;-80
2021/08/19 04:27:45;;;;;;;2.85;1.95;;;20.40;68.10;;;;;;5015441;28;20214;-80
2021/08/19 04:30:11;;;;;;;2.50;2.20;;;20.40;67.50;;;;;;5015448;28;20647;-81
2021/08/19 04:32:37;;;;;;;2.22;1.92;;;20.30;67.40;;;;;;5031683;28;20262;-81
2021/08/19 04:35:03;;;;;;;1.90;1.67;;;20.30;67.60;;;;;;5032300;28;20288;-81
2021/08/19 04:37:29;;;;;;;1.60;1.50;;;20.20;67.00;;;;;;5035451;28;20507;-80
2021/08/19 04:39:55;;;;;;;2.00;1.80;;;20.30;66.70;;;;;;5052915;28;20513;-81
2021/08/19 04:42:23;;;;;;;2.58;1.50;;;20.30;66.40;;;;;;5052894;28;20601;-81
2021/08/19 04:44:49;;;;;;;1.80;1.67;;;20.30;66.50;;;;;;5052821;28;20159;-81
2021/08/19 04:47:15;;;;;;;2.10;1.90;;;20.30;66.20;;;;;;5018552;28;20631;-81
2021/08/19 04:49:41;;;;;;;2.13;1.73;;;20.20;66.90;;;;;;5035009;28;20614;-80
2021/08/19 04:52:07;;;;;;;1.80;1.58;;;20.20;66.30;;;;;;5018901;28;20601;-81
2021/08/19 04:54:33;;;;;;;1.35;1.25;;;20.20;66.00;;;;;;5018766;28;20679;-81
2021/08/19 04:57:00;;;;;;;1.42;1.33;;;20.20;65.40;;;;;;5052708;28;20147;-80
2021/08/19 04:59:25;;;;;;;1.50;1.40;;;20.20;65.10;;;;;;5052611;27;20165;-80
2021/08/19 05:01:51;;;;;;;1.60;1.50;;;20.20;65.10;;;;;;5052722;28;20154;-81
2021/08/19 05:04:17;;;;;;;1.50;1.33;;;20.20;65.20;;;;;;5034719;28;20154;-80
2021/08/19 05:06:43;;;;;;;1.40;1.30;;;20.20;64.90;;;;;;5034985;28;20155;-80
2021/08/19 05:09:09;;;;;;;1.60;1.50;;;20.20;64.90;;;;;;5034740;28;20157;-81
2021/08/19 05:11:36;;;;;;;1.98;1.70;;;20.20;64.90;;;;;;5052400;28;20249;-81
2021/08/19 05:14:03;;;;;;;1.40;1.30;;;20.10;65.30;;;;;;5051948;28;20229;-81
2021/08/19 05:16:29;;;;;;;1.70;1.60;;;20.20;65.10;;;;;;5035199;28;20174;-80
2021/08/19 05:18:56;;;;;;;1.65;1.40;;;20.20;65.60;;;;;;5034603;28;20158;-81
2021/08/19 05:21:22;;;;;;;1.30;1.20;;;20.20;64.40;;;;;;5052286;28;20159;-81
2021/08/19 05:23:47;;;;;;;1.50;1.30;;;20.20;63.90;;;;;;5034469;28;20170;-82
2021/08/19 05:26:13;;;;;;;1.20;1.10;;;20.20;64.20;;;;;;5052088;28;20513;-80
2021/08/19 05:28:39;;;;;;;1.42;1.27;;;20.20;63.70;;;;;;5052180;28;20162;-81
2021/08/19 05:31:05;;;;;;;1.73;1.63;;;20.10;63.50;;;;;;5034183;28;20246;-80
2021/08/19 05:33:30;;;;;;;1.17;1.08;;;20.20;65.40;;;;;;5017877;28;20205;-81
2021/08/19 05:35:56;;;;;;;1.30;1.20;;;20.10;63.00;;;;;;5034267;28;20169;-81
2021/08/19 05:38:22;;;;;;;1.30;1.10;;;20.10;63.50;;;;;;5034141;28;20151;-82
2021/08/19 05:40:48;;;;;;;2.22;1.58;;;20.10;63.60;;;;;;5034379;28;20662;-81
2021/08/19 05:43:14;;;;;;;1.92;1.50;;;20.10;63.30;;;;;;5033972;28;20165;-80
2021/08/19 05:45:41;;;;;;;1.52;1.30;;;20.10;64.20;;;;;;5017603;28;20215;-79
2021/08/19 05:48:06;;;;;;;1.20;1.10;;;20.10;63.80;;;;;;5050592;28;20155;-81
2021/08/19 05:50:33;;;;;;;1.60;1.17;;;20.10;63.40;;;;;;5033851;28;20257;-80
2021/08/19 05:52:59;;;;;;;8.10;1.35;;;20.10;62.90;;;;;;5033149;28;20179;-80
2021/08/19 05:55:25;;;;;;;1.40;1.30;;;20.10;63.80;;;;;;5033413;28;20645;-80
2021/08/19 05:57:51;;;;;;;1.30;1.20;;;20.10;63.60;;;;;;5017872;28;20201;-81
2021/08/19 06:00:21;;;;;;;1.42;1.20;;;20.10;62.90;;;;;;5051818;28;20154;-80
2021/08/19 06:02:48;;;;;;;1.10;0.93;;;20.10;63.30;;;;;;5051912;28;20162;-80
2021/08/19 06:05:14;;;;;;;1.00;0.90;;;20.10;62.40;;;;;;5017824;28;20154;-80
2021/08/19 06:07:40;;;;;;;1.00;0.90;;;20.10;62.70;;;;;;5017612;28;20627;-80
2021/08/19 06:10:06;;;;;;;1.17;1.08;;;20.10;62.70;;;;;;5017329;28;20158;-81
2021/08/19 06:12:32;;;;;;;1.05;0.95;;;20.10;62.70;;;;;;5051373;28;20150;-80
2021/08/19 06:14:58;;;;;;;1.10;1.00;;;20.10;62.30;;;;;;5033323;28;20274;-80
2021/08/19 06:17:24;;;;;;;1.08;0.98;;;20.10;62.10;;;;;;5051330;28;20200;-82
2021/08/19 06:19:50;;;;;;;1.17;1.00;;;20.10;62.40;;;;;;5033937;28;20154;-81
2021/08/19 06:22:15;;;;;;;1.20;1.10;;;20.10;61.90;;;;;;5017176;28;20174;-82
2021/08/19 06:24:41;;;;;;;1.05;0.98;;;20.10;61.80;;;;;;5051428;28;20180;-80
2021/08/19 06:27:07;;;;;;;1.00;0.90;;;20.10;62.00;;;;;;5033437;28;20180;-80
2021/08/19 06:29:33;;;;;;;0.95;0.90;;;20.20;61.80;;;;;;5033422;28;20207;-81
2021/08/19 06:31:58;;;;;;;1.75;0.90;;;20.00;61.50;;;;;;5016949;28;20222;-80
2021/08/19 06:34:24;;;;;;;2.22;1.00;;;20.10;61.50;;;;;;5034899;28;20198;-82
2021/08/19 06:36:50;;;;;;;1.20;1.05;;;20.10;61.50;;;;;;5131845;27;20166;-79
2021/08/19 06:39:15;;;;;;;0.90;0.90;;;20.10;61.40;;;;;;5089420;27;20194;-82
2021/08/19 06:41:41;;;;;;;0.93;0.63;;;20.10;62.40;;;;;;5019263;28;20306;-81
2021/08/19 06:44:07;;;;;;;1.92;1.08;;;20.10;61.90;;;;;;5019580;28;20169;-81
2021/08/19 06:46:32;;;;;;;1.17;0.70;;;20.10;61.90;;;;;;5053770;28;20155;-80
2021/08/19 06:48:58;;;;;;;1.15;1.05;;;20.10;61.50;;;;;;5035641;28;20241;-80
2021/08/19 06:51:24;;;;;;;1.40;1.10;;;20.00;61.90;;;;;;5035477;28;20173;-79
2021/08/19 06:53:51;;;;;;;2.17;1.05;;;20.10;62.00;;;;;;5052146;28;20213;-81
2021/08/19 06:56:17;;;;;;;1.10;1.00;;;20.10;62.00;;;;;;5034644;28;20158;-80
2021/08/19 06:58:44;;;;;;;0.90;0.70;;;20.10;62.40;;;;;;5034193;28;20154;-80
2021/08/19 07:01:11;;;;;;;1.25;1.15;;;20.00;61.80;;;;;;5033947;28;20562;-80
2021/08/19 07:03:37;;;;;;;2.05;1.02;;;20.00;62.00;;;;;;5034366;28;20170;-79
2021/08/19 07:06:03;;;;;;;0.88;0.80;;;20.00;62.40;;;;;;5016348;28;20578;-81
2021/08/19 07:08:29;;;;;;;1.00;0.90;;;20.00;62.00;;;;;;5033824;28;20165;-79
2021/08/19 07:10:55;;;;;;;1.20;0.90;;;20.00;62.00;;;;;;5051181;28;20158;-81
2021/08/19 07:13:20;;;;;;;0.90;0.88;;;20.00;62.40;;;;;;5033347;28;20233;-80
2021/08/19 07:15:46;;;;;;;1.02;0.93;;;20.00;62.10;;;;;;5033162;28;20158;-80
2021/08/19 07:18:12;;;;;;;2.83;1.20;;;20.00;62.40;;;;;;5033817;28;20158;-81
2021/08/19 07:20:39;;;;;;;0.80;0.70;;;20.00;62.30;;;;;;5033006;28;20143;-78
2021/08/19 07:23:05;;;;;;;1.23;0.80;;;20.00;62.20;;;;;;5053933;28;20246;-79
2021/08/19 07:25:31;;;;;;;1.00;0.85;;;20.10;62.20;;;;;;5018397;28;20281;-80
2021/08/19 07:27:57;;;;;;;0.93;0.73;;;20.10;61.80;;;;;;5051876;28;20567;-79
2021/08/19 07:30:23;;;;;;;0.80;0.80;;;20.00;61.80;;;;;;5034997;28;20612;-81
2021/08/19 07:32:52;;;;;;;1.13;0.93;;;20.00;61.80;;;;;;5017559;28;20636;-79
2021/08/19 07:35:18;;;;;;;0.90;0.80;;;20.00;62.00;;;;;;4994005;28;20241;-81
2021/08/19 07:37:47;;;;;;;0.80;0.80;;;20.00;62.00;;;;;;4993118;28;20195;-79
2021/08/19 07:40:34;;;;;;;2.20;1.10;;;20.10;62.00;;;;;;4994323;28;20187;-80
2021/08/19 07:43:05;;;;;;;4.38;1.20;;;20.00;62.20;;;;;;4959113;28;20184;-81
2021/08/19 07:45:36;;;;;;;1.10;1.00;;;20.10;61.60;;;;;;4958975;28;20274;-80
2021/08/19 07:48:10;;;;;;;1.15;1.05;;;20.00;62.20;;;;;;4975879;28;20176;-81
2021/08/19 07:50:37;;;;;;;1.20;0.80;;;20.00;61.70;;;;;;4992288;28;20238;-82
2021/08/19 07:53:03;;;;;;;1.85;0.90;;;20.00;61.40;;;;;;4992007;28;20225;-83
2021/08/19 07:55:34;;;;;;;1.52;0.80;;;20.00;61.40;;;;;;4993858;28;20195;-80
2021/08/19 07:58:05;;;;;;;0.80;0.80;;;20.10;61.80;;;;;;4978147;28;20238;-81
2021/08/19 08:00:32;;;;;;;1.10;1.00;;;20.10;61.60;;;;;;4974003;28;20546;-80
2021/08/19 08:02:58;;;;;;;1.10;0.98;;;20.10;61.70;;;;;;4990983;28;20176;-81
2021/08/19 08:05:31;;;;;;;2.45;0.80;;;20.10;61.40;;;;;;4991339;28;20191;-81
2021/08/19 08:08:02;;;;;;;1.45;1.00;;;20.10;61.40;;;;;;4975182;28;20184;-80
2021/08/19 08:10:30;;;;;;;0.90;0.82;;;20.10;61.60;;;;;;4978379;28;20171;-81
2021/08/19 08:13:00;;;;;;;0.93;0.80;;;20.10;61.10;;;;;;5002689;28;20259;-81
2021/08/19 08:15:26;;;;;;;1.15;0.80;;;20.10;60.90;;;;;;5005691;28;20193;-79
2021/08/19 08:17:52;;;;;;;1.08;0.88;;;20.20;60.90;;;;;;5026069;28;20293;-81
2021/08/19 08:20:19;;;;;;;1.00;0.90;;;20.10;61.10;;;;;;5026597;28;20170;-80
2021/08/19 08:22:46;;;;;;;1.58;1.05;;;20.10;60.80;;;;;;5042343;28;20202;-80
2021/08/19 08:25:13;;;;;;;1.25;0.98;;;20.10;61.30;;;;;;5060872;28;20177;-81
2021/08/19 08:28:20;;;;;;;1.75;1.23;;;20.10;61.20;;;;;;5043377;28;20597;-84
2021/08/19 08:30:46;;;;;;;3.22;1.02;;;20.10;61.60;;;;;;5047984;28;20174;-81
2021/08/19 08:33:13;;;;;;;0.88;0.73;;;20.10;61.20;;;;;;5025251;28;20221;-79
2021/08/19 08:35:39;;;;;;;1.10;0.82;;;20.10;61.00;;;;;;5009151;28;20162;-80
2021/08/19 08:38:11;;;;;;;2.38;1.30;;;20.10;60.70;;;;;;5023207;28;20170;-80
2021/08/19 08:40:45;;;;;;;2.42;0.73;;;20.10;60.90;;;;;;5006167;28;20250;-81
2021/08/19 08:43:11;;;;;;;1.08;0.90;;;20.10;60.90;;;;;;5004884;28;20182;-81
2021/08/19 08:45:38;;;;;;;1.05;0.95;;;20.10;61.00;;;;;;5038954;28;20164;-82
2021/08/19 08:48:06;;;;;;;3.33;0.82;;;20.20;61.00;;;;;;5004231;28;20303;-82
2021/08/19 08:50:38;;;;;;;2.22;0.75;;;20.10;61.20;;;;;;5021357;28;20147;-82
2021/08/19 08:53:04;;;;;;;2.03;1.10;;;20.10;61.00;;;;;;4988014;28;20178;-81
2021/08/19 08:55:33;;;;;;;0.90;0.68;;;20.10;61.00;;;;;;5018481;28;20190;-83
2021/08/19 08:58:00;;;;;;;2.17;1.15;;;20.20;60.70;;;;;;5018306;28;20167;-79
2021/08/19 09:00:34;;;;;;;2.38;0.82;;;20.20;60.90;;;;;;5001662;28;20159;-79
2021/08/19 09:03:04;;;;;;;1.63;0.80;;;20.20;61.10;;;;;;4979236;28;20195;-81
2021/08/19 09:05:41;;;;;;;1.23;0.80;;;20.20;61.10;;;;;;4961954;28;20188;-79
2021/08/19 09:08:12;;;;;;;0.95;0.80;;;20.10;62.10;;;;;;5047968;28;20184;-81
2021/08/19 09:10:38;;;;;;;2.33;1.02;;;20.20;61.10;;;;;;4961340;28;20164;-82
2021/08/19 09:13:09;;;;;;;2.65;0.85;;;20.10;62.10;;;;;;4991227;28;20712;-80
2021/08/19 09:15:36;;;;;;;3.28;0.88;;;20.10;60.90;;;;;;4947207;28;20199;-81
2021/08/19 09:18:03;;;;;;;0.90;0.73;;;20.20;60.70;;;;;;4976982;28;20670;-84
2021/08/19 09:20:39;;;;;;;1.17;1.00;;;20.20;60.70;;;;;;4961764;28;20631;-83
2021/08/19 09:23:12;;;;;;;1.85;0.95;;;20.20;60.80;;;;;;4944182;28;20675;-79
2021/08/19 09:25:45;;;;;;;1.80;0.80;;;20.20;60.80;;;;;;4977721;28;20180;-80
2021/08/19 09:28:13;;;;;;;2.20;0.90;;;20.20;60.90;;;;;;5063472;28;20180;-82
2021/08/19 09:30:41;;;;;;;1.52;0.75;;;20.20;60.60;;;;;;4961536;28;20183;-81
2021/08/19 09:33:42;;;;;;;0.80;0.70;;;20.20;60.60;;;;;;4962026;28;20188;-83
2021/08/19 09:36:09;;;;;;;1.52;1.10;;;20.20;60.70;;;;;;5010404;28;20183;-80
2021/08/19 09:38:40;;;;;;;1.40;1.00;;;20.20;60.60;;;;;;4994839;28;20189;-81
2021/08/19 09:41:18;;;;;;;3.42;0.80;;;20.10;60.70;;;;;;5011314;28;20186;-84
2021/08/19 09:43:48;;;;;;;1.35;1.00;;;20.10;60.40;;;;;;4977874;28;20214;-84
2021/08/19 09:46:28;;;;;;;1.88;0.80;;;20.10;60.60;;;;;;4993906;28;20203;-83
2021/08/19 09:49:24;;;;;;;0.80;0.80;;;20.20;60.60;;;;;;5020632;28;20198;-81
2021/08/19 09:52:13;;;;;;;2.13;0.88;;;20.10;60.50;;;;;;4998691;28;20209;-83
2021/08/19 09:54:55;;;;;;;1.70;1.00;;;20.10;60.60;;;;;;5015358;28;20187;-83
2021/08/19 09:57:23;;;;;;;1.42;0.73;;;20.10;60.50;;;;;;4997491;28;20191;-82
2021/08/19 09:59:49;;;;;;;0.80;0.80;;;20.20;60.50;;;;;;5030984;28;20171;-84
2021/08/19 10:02:32;;;;;;;2.67;0.90;;;20.10;60.50;;;;;;5015679;28;20596;-82
2021/08/19 10:08:25;;;;;;;1.85;0.93;;;20.10;60.60;;;;;;5032050;28;20652;-81
2021/08/19 10:11:45;;;;;;;2.47;0.80;;;20.10;61.40;;;;;;4997167;28;20190;-84
2021/08/19 10:14:15;;;;;;;1.05;0.88;;;20.10;60.50;;;;;;4971080;28;20228;-85
2021/08/19 10:16:41;;;;;;;3.22;0.80;;;20.10;60.40;;;;;;4923696;28;20541;-81
2021/08/19 10:19:26;;;;;;;0.88;0.77;;;20.10;60.50;;;;;;4955855;28;20214;-84
2021/08/19 10:22:14;;;;;;;1.20;0.90;;;20.10;60.40;;;;;;4957452;28;20184;-81
2021/08/19 10:24:54;;;;;;;1.35;0.68;;;20.10;60.20;;;;;;4975934;28;20191;-84
2021/08/19 10:27:23;;;;;;;0.80;0.60;;;20.10;60.20;;;;;;4981450;28;20168;-79
2021/08/19 10:29:52;;;;;;;0.80;0.77;;;20.10;60.20;;;;;;4984569;28;20182;-81
2021/08/19 10:32:33;;;;;;;1.88;0.60;;;20.10;60.10;;;;;;4978414;28;20585;-83
2021/08/19 10:35:03;;;;;;;1.00;0.80;;;20.10;60.10;;;;;;4977740;28;20205;-80
2021/08/19 10:38:00;;;;;;;1.02;0.77;;;20.10;60.00;;;;;;4985616;28;20252;-83
2021/08/19 10:40:34;;;;;;;1.05;0.75;;;20.10;60.00;;;;;;4985252;28;20184;-83
2021/08/19 10:43:32;;;;;;;1.33;0.88;;;20.10;60.00;;;;;;4975828;28;20184;-82
2021/08/19 10:46:15;;;;;;;1.27;0.80;;;20.20;60.10;;;;;;4983874;28;20236;-81
2021/08/19 10:51:47;;;;;;;0.80;0.65;;;20.10;60.10;;;;;;5067765;28;20191;-82
2021/08/19 10:54:34;;;;;;;1.10;0.68;;;20.10;60.00;;;;;;5070501;28;20557;-82
2021/08/19 10:57:25;;;;;;;3.47;0.90;;;20.20;60.20;;;;;;5087577;28;20187;-82
2021/08/19 11:00:39;;;;;;;;;;;;;;;;;;;;;
2021/08/19 11:03:07;;;;;;;1.23;0.75;;;20.10;60.00;;;;;;4964900;28;20275;-82
2021/08/19 11:06:12;;;;;;;0.90;0.80;;;20.20;60.20;;;;;;4949040;28;20208;-82
2021/08/19 11:08:45;;;;;;;1.20;0.73;;;20.10;60.30;;;;;;4976179;28;20200;-81
2021/08/19 11:11:24;;;;;;;1.13;0.90;;;20.10;60.10;;;;;;4949131;28;20235;-83
2021/08/19 11:13:57;;;;;;;1.13;0.88;;;20.10;60.10;;;;;;4928254;29;20229;-81
2021/08/19 11:16:23;;;;;;;1.70;0.75;;;20.10;60.20;;;;;;4939167;29;20188;-82
2021/08/19 11:19:23;;;;;;;3.55;0.95;;;20.20;60.20;;;;;;4927588;29;20198;-80
2021/08/19 11:22:02;;;;;;;1.60;1.00;;;20.10;60.30;;;;;;4958877;28;20212;-81
2021/08/19 11:24:34;;;;;;;2.30;0.73;;;20.10;60.20;;;;;;4944022;29;20248;-81
2021/08/19 11:27:25;;;;;;;2.42;1.15;;;20.10;60.10;;;;;;4945106;29;20212;-80
2021/08/19 11:30:13;;;;;;;1.55;0.70;;;20.10;60.10;;;;;;4929716;29;20532;-81
2021/08/19 11:32:46;;;;;;;3.88;0.82;;;20.10;60.10;;;;;;4930375;29;20200;-82
2021/08/19 11:35:31;;;;;;;1.27;0.85;;;20.20;60.20;;;;;;4929997;29;20254;-82
2021/08/19 11:38:08;;;;;;;1.75;0.70;;;20.20;60.20;;;;;;4943244;29;20230;-80
2021/08/19 11:40:38;;;;;;;2.58;1.05;;;20.20;60.10;;;;;;5042788;28;20219;-80
2021/08/19 11:43:23;;;;;;;2.72;0.88;;;20.20;60.00;;;;;;5024968;28;20178;-79
2021/08/19 11:45:56;;;;;;;3.30;0.90;;;20.20;60.00;;;;;;5041261;28;20680;-80
2021/08/19 11:48:25;;;;;;;2.47;0.70;;;20.20;59.80;;;;;;5030041;28;20189;-80
2021/08/19 11:50:54;;;;;;;2.70;1.10;;;20.20;59.90;;;;;;5029349;28;20743;-82
2021/08/19 11:53:24;;;;;;;0.95;0.60;;;20.30;60.00;;;;;;5078468;28;20226;-81
2021/08/19 11:55:54;;;;;;;1.48;0.55;;;20.30;59.80;;;;;;5029402;28;20184;-80
2021/08/19 11:58:28;;;;;;;2.45;0.82;;;20.30;59.60;;;;;;5029701;28;20292;-82
2021/08/19 12:00:57;;;;;;;1.70;0.90;;;20.40;59.90;;;;;;5045341;28;20310;-81
2021/08/19 12:03:29;;;;;;;2.70;0.80;;;20.30;59.80;;;;;;5085622;28;20627;-80
2021/08/19 12:06:14;;;;;;;4.72;1.13;;;20.30;59.60;;;;;;5097031;28;20183;-80
2021/08/19 12:08:51;;;;;;;1.80;1.00;;;20.40;59.60;;;;;;5123339;28;20191;-80
2021/08/19 12:11:24;;;;;;;1.58;0.70;;;20.30;59.80;;;;;;5122831;28;20263;-80
2021/08/19 12:13:50;;;;;;;4.28;0.85;;;20.30;59.60;;;;;;5095833;28;20204;-78
2021/08/19 12:16:26;;;;;;;1.30;0.98;;;20.30;59.90;;;;;;5022999;28;20234;-80
2021/08/19 12:19:07;;;;;;;1.38;0.93;;;20.30;59.90;;;;;;5057353;28;20150;-81
2021/08/19 12:21:56;;;;;;;1.17;0.85;;;20.30;59.70;;;;;;5016401;28;20185;-83
2021/08/19 12:24:38;;;;;;;2.42;0.80;;;20.30;59.70;;;;;;5016554;28;20179;-80
2021/08/19 12:27:17;;;;;;;2.05;0.80;;;20.30;59.80;;;;;;5016608;28;20163;-82
2021/08/19 12:29:59;;;;;;;1.98;0.80;;;20.20;59.60;;;;;;5000742;28;20184;-81
2021/08/19 12:32:35;;;;;;;1.27;0.63;;;20.20;59.60;;;;;;4969121;28;20245;-80
2021/08/19 12:35:06;;;;;;;1.05;0.70;;;20.20;59.70;;;;;;4968072;28;20207;-82
2021/08/19 12:37:33;;;;;;;3.95;1.13;;;20.20;59.60;;;;;;5000096;28;20180;-82
2021/08/19 12:40:07;;;;;;;2.03;0.70;;;20.20;59.40;;;;;;5017069;28;20160;-80
2021/08/19 12:42:41;;;;;;;1.92;0.88;;;20.20;59.60;;;;;;5001529;28;20308;-81
2021/08/19 12:45:13;;;;;;;1.15;0.80;;;20.20;59.40;;;;;;4984887;28;20274;-81
2021/08/19 12:47:46;;;;;;;1.17;0.70;;;20.20;59.40;;;;;;5018325;28;20214;-81
2021/08/19 12:50:21;;;;;;;2.25;0.90;;;20.30;59.40;;;;;;5001609;28;20321;-81
2021/08/19 12:52:51;;;;;;;1.90;0.90;;;20.20;59.30;;;;;;5041693;28;20246;-80
2021/08/19 12:55:20;;;;;;;2.15;1.15;;;20.20;59.50;;;;;;5006682;28;20269;-83
2021/08/19 12:57:55;;;;;;;0.90;0.77;;;20.20;59.30;;;;;;5043220;28;20151;-82
2021/08/19 13:00:23;;;;;;;1.05;0.75;;;20.30;59.30;;;;;;5026314;28;20251;-82
2021/08/19 13:02:49;;;;;;;0.90;0.70;;;20.30;59.20;;;;;;5026408;28;20194;-82
2021/08/19 13:05:17;;;;;;;2.22;0.80;;;20.30;59.20;;;;;;5027602;28;20177;-82
2021/08/19 13:08:02;;;;;;;1.58;1.10;;;20.30;59.30;;;;;;5043776;28;20169;-82